Castleberry, Alabama
Current Conditions -  °F | °C
As of 8:53 AM on Saturday 20 Dec 2014 (Local Time) from KGZH Reporting Station
Overcast Overcast  
Wind Chill: 45°   Ceiling: 500
Heat Index: 48°   Visibility: 8mi
Dew Point: 46°   Wind: 7mph
Humidity: 93%   Direction: 50°NE
Pressure: 30.18"   Gusts: NA
Location:  31.3°N, 87.02°W
Report Text: KGZH 201453Z AUTO 05006KT 8SM OVC005 09/08 A3018 RMK AO2 RAE06 SLP220 P0000 60001 T00890078 51010
Loading
Personal Weather Stations






























Interactive Weather Map New forecast layout! Learn more

10-Day Weather Forecast

Advertisements
Track Severe Weather on mobile